Time;durP1;ratioP1;P1;durP2;ratioP2;P2;SDS_P1;SDS_P2;PMS_P1;PMS_P2;Temp;Humidity;BMP_temperature;BMP_pressure;BME280_temperature;BME280_humidity;BME280_pressure;Samples;Min_cycle;Max_cycle;Signal;HPM_P1;HPM_P2
2023/07/10 00:01:14;;;;;;;2.63;0.93;;;;;;;16.63;63.99;100853.25;5033009;28;20463;-46
2023/07/10 00:03:42;;;;;;;6.13;0.68;;;;;;;16.61;64.15;100855.63;5027718;28;20049;-48
2023/07/10 00:06:11;;;;;;;6.65;1.33;;;;;;;16.64;64.24;100854.88;5030401;28;20076;-46
2023/07/10 00:08:39;;;;;;;2.25;1.10;;;;;;;16.65;64.20;100853.69;5031407;28;20057;-46
2023/07/10 00:11:19;;;;;;;5.88;1.40;;;;;;;16.65;64.23;100857.31;5033263;28;20045;-46
2023/07/10 00:13:47;;;;;;;4.72;1.35;;;;;;;16.66;64.12;100863.69;5026774;28;20064;-46
2023/07/10 00:16:18;;;;;;;5.75;1.40;;;;;;;16.65;64.32;100856.50;5028208;28;20695;-45
2023/07/10 00:18:46;;;;;;;4.25;1.40;;;;;;;16.63;64.50;100861.66;5031425;28;20045;-46
2023/07/10 00:21:13;;;;;;;4.93;1.10;;;;;;;16.61;64.25;100850.84;5030899;28;20510;-46
2023/07/10 00:23:40;;;;;;;4.80;1.40;;;;;;;16.54;64.49;100861.16;4995348;28;20050;-47
2023/07/10 00:26:19;;;;;;;6.72;1.13;;;;;;;16.50;64.65;100855.50;5032275;28;20045;-46
2023/07/10 00:28:51;;;;;;;6.75;2.45;;;;;;;16.52;64.77;100857.91;5024803;28;20443;-48
2023/07/10 00:31:19;;;;;;;2.72;0.98;;;;;;;16.50;64.99;100858.28;5029458;28;20045;-46
2023/07/10 00:33:47;;;;;;;3.08;1.20;;;;;;;16.50;65.05;100854.69;5030574;28;20381;-46
2023/07/10 00:36:32;;;;;;;6.70;1.30;;;;;;;16.47;65.40;100838.69;5032487;28;20149;-45
2023/07/10 00:39:11;;;;;;;2.78;0.95;;;;;;;16.49;65.30;100842.72;5030003;28;20067;-45
2023/07/10 00:41:40;;;;;;;2.65;1.17;;;;;;;16.50;65.32;100849.09;5031691;28;20581;-46
2023/07/10 00:44:09;;;;;;;3.95;1.15;;;;;;;16.54;65.53;100830.41;5029796;28;20048;-46
2023/07/10 00:46:41;;;;;;;3.95;0.95;;;;;;;16.58;65.56;100834.84;5030669;28;20488;-46
2023/07/10 00:49:43;;;;;;;3.05;1.02;;;;;;;16.61;65.56;100827.69;5030667;28;20037;-45
2023/07/10 00:52:24;;;;;;;3.33;1.58;;;;;;;16.62;65.63;100829.31;4985336;28;20065;-46
2023/07/10 00:54:53;;;;;;;6.85;1.10;;;;;;;16.62;65.72;100829.31;5032397;28;20492;-45
2023/07/10 00:57:24;;;;;;;6.88;0.98;;;;;;;16.63;65.77;100817.72;5029821;28;20049;-45
2023/07/10 00:59:51;;;;;;;4.75;1.00;;;;;;;16.61;66.00;100827.69;5027853;28;20041;-46
2023/07/10 01:02:21;;;;;;;5.10;1.45;;;;;;;16.61;66.44;100819.31;5028473;28;20088;-46
2023/07/10 01:05:02;;;;;;;4.30;1.40;;;;;;;16.58;66.55;100815.28;5031630;28;20069;-46
2023/07/10 01:07:35;;;;;;;5.28;1.90;;;;;;;16.57;66.58;100812.88;5028979;28;20096;-48
2023/07/10 01:10:06;;;;;;;6.50;1.55;;;;;;;16.56;66.78;100823.25;5032018;28;20040;-46
2023/07/10 01:12:34;;;;;;;4.43;1.08;;;;;;;16.55;67.07;100818.84;5027892;28;20073;-46
2023/07/10 01:15:01;;;;;;;3.78;1.20;;;;;;;16.54;67.08;100816.44;5030086;28;20057;-48
2023/07/10 01:17:28;;;;;;;2.70;1.17;;;;;;;16.52;67.35;100813.22;5029023;28;20483;-46
2023/07/10 01:20:00;;;;;;;7.30;1.50;;;;;;;16.49;67.54;100808.38;5031671;28;20060;-46
2023/07/10 01:22:28;;;;;;;6.07;1.40;;;;;;;16.45;67.74;100806.34;5029130;28;20037;-45
2023/07/10 01:24:56;;;;;;;7.97;1.65;;;;;;;16.42;67.86;100812.69;5028433;28;20100;-45
2023/07/10 01:27:23;;;;;;;6.07;1.27;;;;;;;16.44;68.08;100812.34;5028028;28;20049;-46
2023/07/10 01:30:02;;;;;;;11.98;2.05;;;;;;;16.49;68.31;100806.38;5029872;28;20053;-46
2023/07/10 01:32:30;;;;;;;8.10;2.30;;;;;;;16.51;68.14;100806.00;5027838;28;20072;-45
2023/07/10 01:35:03;;;;;;;5.22;1.70;;;;;;;16.52;68.26;100807.63;5031147;28;20384;-48
2023/07/10 01:37:30;;;;;;;3.78;1.30;;;;;;;16.54;68.45;100811.66;5029823;28;20076;-46
2023/07/10 01:39:57;;;;;;;6.50;1.17;;;;;;;16.56;68.59;100811.25;5026223;28;20499;-47
2023/07/10 01:42:24;;;;;;;6.68;1.85;;;;;;;16.57;68.60;100807.28;5026098;28;20073;-47
2023/07/10 01:44:52;;;;;;;6.80;1.20;;;;;;;16.56;68.67;100803.69;5029220;28;20073;-46
2023/07/10 01:47:20;;;;;;;8.80;1.65;;;;;;;16.57;68.77;100798.91;5028115;28;20049;-46
2023/07/10 01:49:58;;;;;;;3.22;1.40;;;;;;;16.56;68.95;100802.88;5030381;28;20076;-46
2023/07/10 01:52:25;;;;;;;7.05;1.98;;;;;;;16.55;69.06;100801.28;5028645;28;20052;-46
2023/07/10 01:54:52;;;;;;;7.68;1.92;;;;;;;16.54;69.28;100788.50;5031120;28;20041;-46
2023/07/10 01:57:24;;;;;;;7.93;1.65;;;;;;;16.54;69.43;100789.31;5026333;28;20053;-47
2023/07/10 01:59:52;;;;;;;6.20;1.48;;;;;;;16.48;69.58;100787.19;5024920;28;20060;-47
2023/07/10 02:02:19;;;;;;;7.30;1.95;;;;;;;16.44;69.77;100779.56;5026323;28;20144;-48
2023/07/10 02:04:46;;;;;;;6.30;1.65;;;;;;;16.40;69.83;100795.50;5025100;28;20052;-46
2023/07/10 02:07:13;;;;;;;6.20;1.83;;;;;;;16.37;70.11;100790.69;5026676;28;20095;-46
2023/07/10 02:09:39;;;;;;;3.35;1.20;;;;;;;16.36;70.14;100788.28;5031252;28;20050;-46
2023/07/10 02:12:07;;;;;;;5.35;1.40;;;;;;;16.36;70.20;100789.06;5010489;28;20128;-46
2023/07/10 02:14:34;;;;;;;5.63;1.83;;;;;;;16.36;70.35;100780.69;5026203;28;20495;-46
2023/07/10 02:17:01;;;;;;;3.25;1.38;;;;;;;16.38;70.39;100797.09;5029623;28;20395;-45
2023/07/10 02:19:27;;;;;;;9.35;2.38;;;;;;;16.33;70.47;100789.88;5007605;28;20049;-49
2023/07/10 02:21:54;;;;;;;5.00;1.80;;;;;;;16.27;70.94;100788.59;5027914;28;20418;-46
2023/07/10 02:24:21;;;;;;;9.23;2.03;;;;;;;16.24;71.27;100782.94;5027949;28;20049;-46
2023/07/10 02:26:48;;;;;;;12.68;1.95;;;;;;;16.22;71.46;100779.75;5030364;28;20052;-46
2023/07/10 02:29:16;;;;;;;5.18;1.23;;;;;;;16.18;71.58;100793.66;5025169;28;20603;-45
2023/07/10 02:31:42;;;;;;;6.10;1.48;;;;;;;16.15;71.86;100786.03;5025555;28;20068;-48
2023/07/10 02:34:09;;;;;;;4.53;1.60;;;;;;;16.14;72.04;100787.25;5029377;28;20033;-45
2023/07/10 02:36:36;;;;;;;4.55;1.63;;;;;;;16.15;72.03;100783.25;5029833;28;20059;-45
2023/07/10 02:39:03;;;;;;;8.73;1.45;;;;;;;16.15;72.08;100786.03;5029113;28;20125;-51
2023/07/10 02:41:30;;;;;;;5.97;1.50;;;;;;;16.13;72.22;100790.41;5030280;28;20049;-53
2023/07/10 02:43:57;;;;;;;6.82;1.27;;;;;;;16.10;72.52;100780.81;5026644;28;20041;-45
2023/07/10 02:46:24;;;;;;;5.00;1.38;;;;;;;16.10;72.60;100783.59;5028603;28;20060;-45
2023/07/10 02:48:52;;;;;;;5.78;1.35;;;;;;;16.10;72.83;100785.56;5028331;28;20581;-46
2023/07/10 02:51:19;;;;;;;13.50;2.28;;;;;;;16.08;73.14;100785.97;5012317;28;20045;-46
2023/07/10 02:53:51;;;;;;;7.60;1.70;;;;;;;16.05;73.35;100778.34;5025136;28;20440;-46
2023/07/10 02:56:18;;;;;;;8.35;1.75;;;;;;;16.04;73.56;100773.16;5027818;28;20041;-47
2023/07/10 02:58:49;;;;;;;9.48;2.42;;;;;;;16.02;73.75;100779.09;5028040;28;20104;-45
2023/07/10 03:01:16;;;;;;;6.00;1.70;;;;;;;16.00;73.80;100775.91;5049684;22;20533;-45
2023/07/10 03:03:45;;;;;;;4.60;1.52;;;;;;;15.99;74.01;100771.50;5009677;28;20443;-46
2023/07/10 03:06:12;;;;;;;7.05;1.45;;;;;;;16.00;74.30;100775.91;5012277;28;20060;-46
2023/07/10 03:08:40;;;;;;;6.55;1.75;;;;;;;16.02;74.55;100764.38;5014290;28;20046;-45
2023/07/10 03:11:10;;;;;;;8.60;1.83;;;;;;;16.03;74.62;100763.97;5014358;28;20054;-46
2023/07/10 03:13:37;;;;;;;5.78;1.50;;;;;;;16.04;74.72;100759.19;5003539;28;20069;-46
2023/07/10 03:16:07;;;;;;;7.70;1.60;;;;;;;16.04;74.95;100765.59;5006531;28;20049;-47
2023/07/10 03:18:35;;;;;;;6.95;1.55;;;;;;;16.04;75.13;100754.41;5013349;28;20034;-45
2023/07/10 03:21:02;;;;;;;3.47;1.30;;;;;;;16.03;75.12;100768.75;5013863;28;20050;-45
2023/07/10 03:23:29;;;;;;;5.75;1.50;;;;;;;15.96;75.21;100769.47;5011501;28;20057;-48
2023/07/10 03:25:56;;;;;;;7.40;1.40;;;;;;;15.95;75.56;100761.47;5014079;28;20133;-46
2023/07/10 03:28:23;;;;;;;6.80;1.75;;;;;;;15.93;75.66;100764.66;5011263;28;20109;-47
2023/07/10 03:30:50;;;;;;;5.80;1.80;;;;;;;15.91;75.72;100755.88;5008367;28;20042;-45
2023/07/10 03:33:19;;;;;;;3.97;1.45;;;;;;;15.88;76.04;100762.22;5011321;28;20978;-45
2023/07/10 03:35:49;;;;;;;8.70;2.00;;;;;;;15.88;76.33;100762.22;5011646;28;20491;-46
2023/07/10 03:38:16;;;;;;;5.85;1.92;;;;;;;15.88;76.31;100756.63;5002748;28;20046;-47
2023/07/10 03:40:51;;;;;;;3.70;1.65;;;;;;;15.89;76.51;100751.81;5010009;28;20778;-45
2023/07/10 03:43:18;;;;;;;4.00;1.30;;;;;;;15.89;76.53;100761.00;5011657;28;20061;-45
2023/07/10 03:45:45;;;;;;;4.85;2.33;;;;;;;15.91;76.64;100761.44;5011845;28;20044;-46
2023/07/10 03:48:12;;;;;;;7.05;2.95;;;;;;;15.93;76.89;100753.50;5013640;28;20046;-46
2023/07/10 03:50:39;;;;;;;5.30;2.00;;;;;;;15.94;77.14;100748.72;5012964;28;20433;-45
2023/07/10 03:53:07;;;;;;;7.22;1.80;;;;;;;15.91;77.02;100736.31;5012358;28;20058;-46
2023/07/10 03:55:34;;;;;;;6.95;2.40;;;;;;;15.90;77.63;100748.66;5012833;28;20056;-45
2023/07/10 03:58:01;;;;;;;6.35;2.30;;;;;;;15.91;77.80;100736.31;5003740;28;20061;-46
2023/07/10 04:00:28;;;;;;;7.13;2.05;;;;;;;15.89;78.01;100735.06;5009975;28;20046;-45
2023/07/10 04:02:54;;;;;;;8.73;2.50;;;;;;;15.89;78.21;100747.03;5005263;28;20062;-45
2023/07/10 04:05:22;;;;;;;9.35;1.67;;;;;;;15.90;78.41;100745.06;5011727;28;20495;-44
2023/07/10 04:07:48;;;;;;;6.95;2.03;;;;;;;15.87;78.83;100743.84;5011234;28;20089;-44
2023/07/10 04:10:15;;;;;;;11.43;2.13;;;;;;;15.86;79.03;100747.03;5012758;28;20045;-46
2023/07/10 04:12:42;;;;;;;6.93;2.63;;;;;;;15.83;79.07;100743.00;5011766;28;20435;-45
2023/07/10 04:15:09;;;;;;;13.48;4.35;;;;;;;15.83;79.30;100746.56;5000656;28;20045;-44
2023/07/10 04:17:36;;;;;;;8.18;2.13;;;;;;;15.82;79.58;100744.19;4989119;28;20042;-48
2023/07/10 04:20:04;;;;;;;2.70;1.63;;;;;;;15.82;79.82;100753.38;4982953;28;20049;-44
2023/07/10 04:22:31;;;;;;;7.78;3.22;;;;;;;15.79;80.12;100748.53;4993909;28;20042;-46
2023/07/10 04:25:05;;;;;;;5.40;1.90;;;;;;;15.79;80.31;100745.75;5006067;28;20092;-46
2023/07/10 04:27:33;;;;;;;5.78;2.13;;;;;;;15.76;80.43;100746.50;5004331;28;20105;-44
2023/07/10 04:29:59;;;;;;;8.10;2.40;;;;;;;15.72;80.49;100748.47;5011770;28;20045;-44
2023/07/10 04:32:26;;;;;;;9.00;2.75;;;;;;;15.71;80.87;100751.59;5011750;28;20566;-45
2023/07/10 04:34:53;;;;;;;6.30;2.17;;;;;;;15.71;81.13;100751.59;5011721;28;20049;-45
2023/07/10 04:37:20;;;;;;;5.95;1.80;;;;;;;15.71;81.26;100748.81;4994198;28;20100;-44
2023/07/10 04:39:48;;;;;;;6.30;1.83;;;;;;;15.72;81.56;100736.47;5012692;28;20084;-44
2023/07/10 04:42:16;;;;;;;6.45;1.88;;;;;;;15.72;81.52;100726.13;4993763;28;20068;-44
2023/07/10 04:44:42;;;;;;;8.80;2.70;;;;;;;15.73;81.89;100724.91;5005605;28;20403;-44
2023/07/10 04:47:09;;;;;;;9.35;1.88;;;;;;;15.70;82.05;100713.72;4998548;28;20586;-45
2023/07/10 04:49:36;;;;;;;9.27;2.50;;;;;;;15.68;82.29;100722.47;4994901;28;20415;-45
2023/07/10 04:52:03;;;;;;;8.73;2.10;;;;;;;15.67;82.44;100723.66;5012462;28;20042;-43
2023/07/10 04:54:31;;;;;;;9.80;2.13;;;;;;;15.69;82.72;100726.88;5010902;28;20048;-44
2023/07/10 04:56:58;;;;;;;7.72;3.00;;;;;;;15.71;82.87;100723.69;5010637;28;20125;-45
2023/07/10 04:59:25;;;;;;;7.05;1.80;;;;;;;15.70;83.08;100710.94;4998061;28;20046;-44
2023/07/10 05:01:52;;;;;;;11.57;2.17;;;;;;;15.74;83.03;100703.41;5008004;28;20061;-45
2023/07/10 05:04:19;;;;;;;11.10;2.15;;;;;;;15.75;83.20;100696.66;5010943;28;20048;-44
2023/07/10 05:06:46;;;;;;;10.32;3.67;;;;;;;15.79;83.34;100697.47;5009397;28;20105;-45
2023/07/10 05:09:13;;;;;;;12.90;2.03;;;;;;;15.83;83.34;100692.75;5012217;28;20048;-45
2023/07/10 05:11:40;;;;;;;10.10;2.95;;;;;;;15.86;83.48;100680.78;5009483;28;20803;-46
2023/07/10 05:14:06;;;;;;;9.25;2.00;;;;;;;15.87;83.47;100693.59;5005012;28;20046;-45
2023/07/10 05:16:33;;;;;;;4.97;1.80;;;;;;;15.90;83.67;100686.44;5009915;28;20042;-44
2023/07/10 05:19:00;;;;;;;9.10;1.85;;;;;;;15.88;83.63;100688.81;5012061;28;20115;-44
2023/07/10 05:21:27;;;;;;;5.45;1.90;;;;;;;15.87;83.95;100690.78;5011467;28;20057;-43
2023/07/10 05:23:54;;;;;;;5.18;1.80;;;;;;;15.88;83.91;100686.00;5010028;28;20038;-44
2023/07/10 05:26:21;;;;;;;8.15;1.30;;;;;;;15.86;83.75;100680.78;5010867;28;20062;-44
2023/07/10 05:28:48;;;;;;;3.47;1.48;;;;;;;15.84;nan;100683.16;5010964;28;20450;-43
2023/07/10 05:31:15;;;;;;;6.97;2.63;;;;;;;15.84;83.86;100683.16;5011037;28;20064;-45
2023/07/10 05:33:42;;;;;;;4.25;1.42;;;;;;;15.83;84.08;100687.16;5010420;28;20121;-44
2023/07/10 05:36:16;;;;;;;9.68;1.77;;;;;;;15.81;84.15;100678.34;5010146;28;20543;-46
2023/07/10 05:38:48;;;;;;;9.23;2.90;;;;;;;15.82;84.22;100685.56;5011685;28;20053;-45
2023/07/10 05:41:18;;;;;;;8.38;1.85;;;;;;;15.81;84.41;100689.50;4999879;28;20054;-45
2023/07/10 05:43:46;;;;;;;10.60;2.50;;;;;;;15.84;84.64;100688.75;5006306;28;20042;-44
2023/07/10 05:46:13;;;;;;;8.75;1.92;;;;;;;15.87;84.80;100681.59;5010419;28;20815;-44
2023/07/10 05:48:41;;;;;;;5.70;2.53;;;;;;;15.87;84.78;100676.03;5010229;28;20116;-45
2023/07/10 05:51:08;;;;;;;9.73;2.33;;;;;;;15.86;85.12;100678.00;5011964;28;20112;-45
2023/07/10 05:53:35;;;;;;;8.20;2.25;;;;;;;15.86;85.23;100683.59;5009976;28;20049;-44
2023/07/10 05:56:03;;;;;;;13.25;2.60;;;;;;;15.87;85.57;100676.81;5010677;28;20038;-45
2023/07/10 05:58:34;;;;;;;16.67;3.47;;;;;;;15.84;85.67;100672.00;5010382;28;20088;-45
2023/07/10 06:01:01;;;;;;;12.23;3.13;;;;;;;15.80;85.95;100665.59;4993029;28;20066;-44
2023/07/10 06:03:32;;;;;;;20.50;3.10;;;;;;;15.79;86.25;100664.78;5010228;28;20038;-44
2023/07/10 06:06:03;;;;;;;7.85;2.58;;;;;;;15.80;86.57;100660.81;5009620;28;20054;-45
2023/07/10 06:08:32;;;;;;;12.13;2.63;;;;;;;15.81;86.63;100665.19;5009992;28;20049;-45
2023/07/10 06:10:59;;;;;;;15.90;3.60;;;;;;;15.78;86.91;100657.59;5010612;28;20066;-47
2023/07/10 06:13:26;;;;;;;11.48;2.85;;;;;;;15.81;87.19;100656.00;5009644;28;20052;-45
2023/07/10 06:15:55;;;;;;;13.35;3.28;;;;;;;15.86;87.61;100652.09;5009500;28;20046;-45
2023/07/10 06:18:23;;;;;;;16.13;3.17;;;;;;;15.92;87.79;100651.34;5011269;28;20077;-45
2023/07/10 06:20:59;;;;;;;13.98;3.00;;;;;;;15.97;87.84;100648.22;5011289;28;20127;-44
2023/07/10 06:23:28;;;;;;;14.43;3.35;;;;;;;16.02;87.91;100653.44;4998040;28;20066;-47
2023/07/10 06:25:56;;;;;;;9.93;3.10;;;;;;;16.07;88.00;100653.09;5008568;28;20092;-44
2023/07/10 06:28:23;;;;;;;18.67;3.67;;;;;;;16.13;88.12;100657.16;5009064;28;20041;-45
2023/07/10 06:31:08;;;;;;;13.10;3.30;;;;;;;16.18;88.14;100654.00;5004169;28;20447;-44
2023/07/10 06:33:35;;;;;;;12.63;3.00;;;;;;;16.22;88.22;100652.06;4997247;28;20057;-44
2023/07/10 06:36:04;;;;;;;17.30;3.22;;;;;;;16.22;88.47;100649.25;5008163;28;20042;-44
2023/07/10 06:38:32;;;;;;;14.10;3.75;;;;;;;16.26;88.51;100655.66;5008471;28;20545;-44
2023/07/10 06:40:59;;;;;;;10.18;3.10;;;;;;;16.24;88.75;100648.88;5004471;28;20507;-45
2023/07/10 06:43:26;;;;;;;14.07;3.97;;;;;;;16.21;88.94;100644.84;5014839;28;20050;-46
2023/07/10 06:45:55;;;;;;;17.95;3.60;;;;;;;16.21;89.20;100639.25;5014100;28;20049;-44
2023/07/10 06:48:23;;;;;;;12.95;2.92;;;;;;;16.26;89.33;100626.94;5009034;28;20050;-43
2023/07/10 06:50:55;;;;;;;18.38;3.25;;;;;;;16.32;89.63;100626.19;5014534;28;20141;-44
2023/07/10 06:53:23;;;;;;;20.10;3.47;;;;;;;16.37;89.61;100625.84;5014529;28;20073;-44
2023/07/10 06:55:58;;;;;;;14.27;5.00;;;;;;;16.46;89.79;100614.31;5014621;28;20491;-44
2023/07/10 06:58:25;;;;;;;18.77;3.40;;;;;;;16.60;89.81;100608.84;5014394;28;20064;-43
2023/07/10 07:00:52;;;;;;;15.10;3.95;;;;;;;16.79;89.69;100605.78;5014392;28;20046;-44
2023/07/10 07:03:20;;;;;;;19.52;4.40;;;;;;;17.01;89.58;100612.31;5014402;28;20046;-43
2023/07/10 07:05:49;;;;;;;18.17;3.88;;;;;;;17.17;89.51;100607.19;5012688;28;20153;-44
2023/07/10 07:08:19;;;;;;;15.00;3.22;;;;;;;17.24;89.36;100610.00;5013919;28;20393;-43
2023/07/10 07:10:50;;;;;;;12.95;3.58;;;;;;;17.22;89.34;100603.19;5014495;28;20045;-43
2023/07/10 07:13:18;;;;;;;14.80;2.75;;;;;;;17.15;89.45;100601.19;5014864;28;20050;-43
2023/07/10 07:15:49;;;;;;;14.25;3.17;;;;;;;17.12;89.92;100604.78;4992260;28;20116;-44
2023/07/10 07:18:16;;;;;;;20.77;5.38;;;;;;;17.12;89.92;100596.38;5011560;28;20076;-44
2023/07/10 07:20:46;;;;;;;15.75;3.25;;;;;;;17.13;89.99;100586.00;4992910;28;20148;-43
2023/07/10 07:23:13;;;;;;;19.48;5.43;;;;;;;17.14;89.97;100587.59;5011614;28;20144;-43
2023/07/10 07:25:44;;;;;;;13.55;3.45;;;;;;;17.12;89.92;100590.78;4994673;28;20061;-43
2023/07/10 07:28:11;;;;;;;12.23;4.32;;;;;;;17.11;89.84;100583.56;5005362;28;20104;-42
2023/07/10 07:30:40;;;;;;;10.30;3.08;;;;;;;17.10;89.91;100582.00;5013830;28;20058;-42
2023/07/10 07:33:07;;;;;;;18.63;3.05;;;;;;;17.10;89.75;100584.78;5001424;28;20049;-42
2023/07/10 07:35:37;;;;;;;13.07;2.72;;;;;;;17.05;89.50;100579.53;5010737;28;20045;-42
2023/07/10 07:38:03;;;;;;;9.63;2.55;;;;;;;17.01;89.45;100592.72;5011500;28;20046;-42
2023/07/10 07:40:31;;;;;;;13.90;3.08;;;;;;;17.00;89.32;100579.91;5006085;28;20077;-44
2023/07/10 07:42:58;;;;;;;14.95;3.08;;;;;;;17.01;89.21;100573.94;5013363;28;20054;-42
2023/07/10 07:45:26;;;;;;;13.38;2.67;;;;;;;17.06;89.13;100581.16;5013192;28;20538;-42
2023/07/10 07:47:53;;;;;;;15.80;3.38;;;;;;;17.12;89.13;100589.97;5011731;28;20050;-42
2023/07/10 07:50:20;;;;;;;16.00;3.47;;;;;;;17.13;88.83;100586.78;5009321;28;21700;-43
2023/07/10 07:52:47;;;;;;;9.88;2.95;;;;;;;17.18;88.78;100591.22;5020948;28;20373;-43
2023/07/10 07:55:14;;;;;;;20.02;3.50;;;;;;;17.29;88.76;100592.84;5012841;28;20050;-43
2023/07/10 07:57:42;;;;;;;10.05;2.97;;;;;;;17.37;88.58;100583.28;4995836;28;20503;-44
2023/07/10 08:00:10;;;;;;;19.25;3.17;;;;;;;17.38;88.33;100582.09;5013505;28;20128;-44
2023/07/10 08:02:37;;;;;;;12.75;4.00;;;;;;;17.37;88.36;100586.06;5013012;28;20062;-45
2023/07/10 08:05:06;;;;;;;14.07;4.72;;;;;;;17.34;88.60;100575.66;5011154;28;20042;-46
2023/07/10 08:07:56;;;;;;;23.58;3.50;;;;;;;17.28;88.58;100573.66;4999118;28;20068;-43
2023/07/10 08:10:25;;;;;;;15.40;3.00;;;;;;;17.20;88.79;100567.25;5013174;28;20042;-43
2023/07/10 08:12:52;;;;;;;14.00;2.38;;;;;;;17.14;88.91;100573.59;5013163;28;20100;-49
2023/07/10 08:15:19;;;;;;;7.38;2.97;;;;;;;17.02;88.83;100574.75;5012937;28;20060;-45
2023/07/10 08:17:46;;;;;;;8.63;1.98;;;;;;;16.88;88.70;100580.28;4994402;28;20052;-44
2023/07/10 08:20:16;;;;;;;6.82;1.80;;;;;;;16.75;88.65;100573.41;4994605;28;20131;-44
2023/07/10 08:22:42;;;;;;;8.85;1.90;;;;;;;16.62;88.82;100561.78;5012706;28;20057;-44
2023/07/10 08:25:15;;;;;;;8.93;1.85;;;;;;;16.51;89.02;100566.47;4992980;28;20492;-45
2023/07/10 08:27:46;;;;;;;9.10;2.00;;;;;;;16.41;89.23;100561.59;4992300;28;20384;-47
2023/07/10 08:30:26;;;;;;;7.60;1.83;;;;;;;16.35;89.91;100552.78;5004082;28;20054;-46
2023/07/10 08:32:55;;;;;;;10.05;2.33;;;;;;;16.31;90.11;100551.94;5000467;28;20038;-45
2023/07/10 08:35:25;;;;;;;;;;;;;;;16.32;90.45;100550.75;4979039;28;20057;-46
2023/07/10 08:37:53;;;;;;;6.15;2.00;;;;;;;16.31;90.02;100557.53;5012411;28;19971;-46
2023/07/10 08:40:29;;;;;;;8.77;2.10;;;;;;;16.32;90.10;100555.53;5010903;28;20057;-43
2023/07/10 08:42:58;;;;;;;4.53;1.63;;;;;;;16.30;90.27;100557.94;4984690;28;20056;-44
2023/07/10 08:45:36;;;;;;;10.07;2.03;;;;;;;16.25;90.64;100544.31;5012602;28;20480;-44
2023/07/10 08:48:20;;;;;;;7.95;2.25;;;;;;;16.27;90.84;100547.53;4994079;28;20085;-44
2023/07/10 08:50:51;;;;;;;6.03;2.00;;;;;;;16.30;90.95;100544.75;5000710;28;20052;-43
2023/07/10 08:53:27;;;;;;;6.78;1.88;;;;;;;16.35;91.21;100552.78;4994817;28;20128;-44
2023/07/10 08:55:59;;;;;;;5.78;1.90;;;;;;;16.42;91.12;100550.03;5007649;28;20096;-48
2023/07/10 08:58:33;;;;;;;8.68;2.85;;;;;;;16.56;91.39;100545.75;5012393;28;20080;-44
2023/07/10 09:01:27;;;;;;;9.93;3.00;;;;;;;16.67;91.20;100538.22;5011346;28;20050;-47
2023/07/10 09:03:58;;;;;;;16.70;2.75;;;;;;;16.77;91.04;100543.06;5012015;28;20764;-45
2023/07/10 09:06:50;;;;;;;14.43;3.05;;;;;;;16.84;91.22;100526.31;4994287;28;20058;-45
2023/07/10 09:09:38;;;;;;;13.80;2.75;;;;;;;16.98;91.48;100523.59;5003333;28;20050;-44
2023/07/10 09:12:13;;;;;;;14.88;3.00;;;;;;;17.17;91.17;100525.25;5011922;28;20504;-46
2023/07/10 09:14:45;;;;;;;8.57;3.20;;;;;;;17.23;91.06;100523.69;5009211;28;20112;-44
2023/07/10 09:18:00;;;;;;;14.88;3.63;;;;;;;17.32;91.16;100524.09;5001851;28;20076;-44
2023/07/10 09:20:27;;;;;;;10.27;3.35;;;;;;;17.40;91.06;100522.91;5012025;28;20148;-47
2023/07/10 09:23:03;;;;;;;16.85;3.92;;;;;;;17.46;91.19;100522.13;5010039;28;20144;-45
2023/07/10 09:25:37;;;;;;;15.38;4.90;;;;;;;17.52;91.12;100520.56;5011786;28;20060;-44
2023/07/10 09:28:04;;;;;;;9.18;2.75;;;;;;;17.56;91.41;100510.19;4993854;28;20084;-44
2023/07/10 09:30:53;;;;;;;12.77;2.70;;;;;;;17.71;91.41;100510.19;5011834;28;20132;-44
2023/07/10 09:33:40;;;;;;;22.80;4.13;;;;;;;17.90;90.90;100506.97;5011699;28;20049;-44
2023/07/10 09:36:33;;;;;;;12.23;3.25;;;;;;;18.11;90.54;100501.38;5011234;28;20063;-44
2023/07/10 09:39:08;;;;;;;8.95;2.20;;;;;;;18.23;90.33;100498.16;5008147;28;20412;-43
2023/07/10 09:41:37;;;;;;;7.45;2.60;;;;;;;18.32;90.46;100501.34;5010411;28;20057;-43
2023/07/10 09:44:17;;;;;;;13.07;3.17;;;;;;;18.48;89.95;100506.56;5009789;28;20042;-43
2023/07/10 09:47:06;;;;;;;9.30;2.63;;;;;;;18.71;89.80;100510.50;5008625;28;20421;-44
2023/07/10 09:49:41;;;;;;;15.13;4.18;;;;;;;19.03;89.22;100515.16;4991623;28;20065;-43
2023/07/10 09:52:39;;;;;;;12.60;3.83;;;;;;;19.13;88.01;100495.47;5008165;28;20089;-44
2023/07/10 09:55:16;;;;;;;19.40;3.47;;;;;;;19.01;87.82;100493.13;5009156;28;20054;-44
2023/07/10 09:58:02;;;;;;;17.25;3.40;;;;;;;18.88;88.07;100494.00;5009354;28;20052;-44
2023/07/10 10:00:30;;;;;;;15.95;4.38;;;;;;;18.73;87.98;100499.66;5009025;28;20037;-45
2023/07/10 10:03:09;;;;;;;22.95;4.50;;;;;;;18.51;88.38;100498.13;5010555;28;20410;-45
2023/07/10 10:05:40;;;;;;;16.52;3.67;;;;;;;18.36;88.62;100506.94;4990806;28;20487;-44
2023/07/10 10:08:21;;;;;;;16.27;3.53;;;;;;;18.33;89.33;100490.94;5001259;28;20038;-43
2023/07/10 10:11:12;;;;;;;17.80;3.58;;;;;;;18.40;89.08;100493.72;4984754;28;20076;-43
2023/07/10 10:14:00;;;;;;;22.30;5.10;;;;;;;18.28;88.54;100494.94;5003740;28;20045;-45
2023/07/10 10:16:45;;;;;;;26.13;4.43;;;;;;;18.08;88.63;100494.56;5015195;28;20042;-45
2023/07/10 10:19:26;;;;;;;16.92;3.60;;;;;;;17.90;88.91;100487.38;4997240;28;20042;-49
2023/07/10 10:21:55;;;;;;;26.92;4.82;;;;;;;17.78;89.14;100482.19;5014860;28;20044;-44
2023/07/10 10:24:24;;;;;;;19.27;4.00;;;;;;;17.61;89.31;100473.38;5014221;28;20057;-47
2023/07/10 10:27:22;;;;;;;26.33;4.22;;;;;;;17.53;89.61;100466.19;5012879;28;20137;-44
2023/07/10 10:30:13;;;;;;;19.30;3.33;;;;;;;17.51;89.73;100464.94;4983236;28;20050;-43
2023/07/10 10:33:07;;;;;;;22.33;4.63;;;;;;;17.41;89.63;100463.75;5014567;28;20124;-43
2023/07/10 10:36:12;;;;;;;23.40;3.65;;;;;;;17.38;89.95;100464.53;5014015;28;20455;-44
2023/07/10 10:38:53;;;;;;;22.75;3.90;;;;;;;17.36;89.94;100452.16;4961483;28;20226;-43
2023/07/10 10:41:31;;;;;;;12.10;2.90;;;;;;;17.46;89.95;100459.75;4997409;28;20050;-44
2023/07/10 10:44:07;;;;;;;18.83;4.50;;;;;;;17.45;89.92;100446.94;5012720;28;20125;-43
2023/07/10 10:46:44;;;;;;;21.90;3.83;;;;;;;17.38;89.93;100447.75;5013822;28;20427;-43
2023/07/10 10:49:58;;;;;;;19.38;4.78;;;;;;;17.32;90.31;100449.34;5004736;28;20044;-44
2023/07/10 10:52:59;;;;;;;26.38;4.10;;;;;;;17.23;90.11;100443.34;4973537;28;20041;-44
2023/07/10 10:55:42;;;;;;;32.10;4.78;;;;;;;17.13;90.39;100435.72;4987253;28;20054;-44
2023/07/10 10:58:29;;;;;;;23.45;4.25;;;;;;;17.13;90.44;100432.13;5007023;28;20140;-44
2023/07/10 11:01:24;;;;;;;20.20;4.30;;;;;;;17.14;90.81;100426.13;5001828;28;20137;-44
2023/07/10 11:03:58;;;;;;;23.10;3.88;;;;;;;17.07;90.58;100420.53;5020039;28;20045;-43
2023/07/10 11:06:47;;;;;;;16.85;4.38;;;;;;;17.07;90.85;100425.31;5015953;28;20450;-45
2023/07/10 11:09:20;;;;;;;21.50;4.15;;;;;;;17.08;90.97;100424.13;5014497;28;20053;-44
2023/07/10 11:11:47;;;;;;;15.85;4.60;;;;;;;17.04;90.88;100418.53;5014191;28;20045;-44
2023/07/10 11:14:16;;;;;;;15.00;2.90;;;;;;;16.97;91.08;100410.91;4996166;28;20054;-46
2023/07/10 11:16:44;;;;;;;13.90;4.05;;;;;;;16.91;91.23;100420.09;5013287;28;20208;-44
2023/07/10 11:19:18;;;;;;;10.82;2.80;;;;;;;16.85;91.46;100408.50;5012816;28;20045;-47
2023/07/10 11:21:45;;;;;;;18.35;3.88;;;;;;;16.81;91.73;100409.69;4994152;28;20411;-44
2023/07/10 11:24:16;;;;;;;16.25;3.28;;;;;;;16.80;92.13;100405.28;5010885;28;20042;-46
2023/07/10 11:26:51;;;;;;;16.55;4.05;;;;;;;16.80;92.12;100399.69;5013535;28;20052;-44
2023/07/10 11:29:41;;;;;;;14.18;3.67;;;;;;;16.84;92.55;100397.69;5004210;28;20053;-44
2023/07/10 11:32:18;;;;;;;21.40;4.22;;;;;;;16.88;92.36;100381.75;5012183;28;20129;-45
2023/07/10 11:35:15;;;;;;;18.90;5.05;;;;;;;16.94;92.57;100382.97;5001013;28;20046;-45
2023/07/10 11:37:48;;;;;;;21.92;4.15;;;;;;;16.96;92.29;100377.75;5012221;28;20129;-45
2023/07/10 11:40:23;;;;;;;23.85;4.65;;;;;;;16.97;92.52;100382.94;4995330;28;20148;-48
2023/07/10 11:42:52;;;;;;;13.43;3.30;;;;;;;16.96;92.71;100381.38;4999669;28;20389;-46